Time;durP1;ratioP1;P1;durP2;ratioP2;P2;SDS_P1;SDS_P2;PMS_P1;PMS_P2;Temp;Humidity;BMP_temperature;BMP_pressure;BME280_temperature;BME280_humidity;BME280_pressure;Samples;Min_cycle;Max_cycle;Signal;HPM_P1;HPM_P2
2022/04/21 00:01:24;;;;;;;;;20.00;20.00;;;;;;;;5036872;28;46578;-71
2022/04/21 00:03:49;;;;;;;;;18.67;18.67;;;;;;;;5037293;28;45306;-71
2022/04/21 00:06:16;;;;;;;;;19.33;19.33;;;;;;;;5036724;28;45378;-71
2022/04/21 00:08:41;;;;;;;;;20.00;18.33;;;;;;;;5037042;28;45388;-72
2022/04/21 00:11:07;;;;;;;;;22.67;20.67;;;;;;;;5036971;28;45315;-71
2022/04/21 00:13:33;;;;;;;;;23.00;22.00;;;;;;;;5036921;28;45275;-71
2022/04/21 00:15:59;;;;;;;;;21.33;19.67;;;;;;;;5037068;28;45497;-70
2022/04/21 00:18:24;;;;;;;;;18.67;18.67;;;;;;;;5037177;28;45757;-70
2022/04/21 00:20:49;;;;;;;;;21.00;19.00;;;;;;;;5039602;28;45519;-70
2022/04/21 00:23:27;;;;;;;;;23.00;18.67;;;;;;;;5040317;28;45383;-70
2022/04/21 00:25:53;;;;;;;;;14.33;13.00;;;;;;;;5040397;28;45355;-71
2022/04/21 00:28:19;;;;;;;;;19.00;17.00;;;;;;;;5040322;28;45373;-70
2022/04/21 00:30:45;;;;;;;;;19.00;19.00;;;;;;;;5040167;28;45353;-70
2022/04/21 00:33:10;;;;;;;;;21.33;19.00;;;;;;;;5040226;28;45337;-70
2022/04/21 00:35:35;;;;;;;;;20.00;17.33;;;;;;;;5040267;28;45301;-69
2022/04/21 00:38:00;;;;;;;;;20.00;17.33;;;;;;;;5040319;28;45428;-70
2022/04/21 00:40:27;;;;;;;;;20.00;18.33;;;;;;;;5040065;28;46316;-70
2022/04/21 00:42:54;;;;;;;;;21.33;20.00;;;;;;;;5040172;28;45489;-70
2022/04/21 00:45:19;;;;;;;;;21.33;19.67;;;;;;;;5040003;28;45416;-69
2022/04/21 00:47:45;;;;;;;;;23.00;20.00;;;;;;;;5040428;28;45335;-69
2022/04/21 00:50:18;;;;;;;;;17.33;16.33;;;;;;;;5039909;28;46591;-70
2022/04/21 00:52:43;;;;;;;;;22.33;20.67;;;;;;;;5039586;28;45240;-71
2022/04/21 00:55:09;;;;;;;;;18.00;16.00;;;;;;;;5039810;28;45466;-70
2022/04/21 00:57:35;;;;;;;;;21.67;19.67;;;;;;;;5039942;28;45581;-71
2022/04/21 01:00:02;;;;;;;;;26.67;19.33;;;;;;;;5039665;28;46534;-70
2022/04/21 01:02:46;;;;;;;;;18.00;17.00;;;;;;;;5039577;28;45432;-70
2022/04/21 01:05:11;;;;;;;;;20.33;18.67;;;;;;;;5039661;28;45253;-70
2022/04/21 01:07:36;;;;;;;;;17.00;15.67;;;;;;;;5039716;28;45441;-70
2022/04/21 01:10:02;;;;;;;;;19.67;18.33;;;;;;;;5039556;28;45528;-69
2022/04/21 01:12:29;;;;;;;;;17.67;16.00;;;;;;;;5039767;28;45386;-70
2022/04/21 01:14:55;;;;;;;;;22.00;18.67;;;;;;;;5039540;28;45378;-70
2022/04/21 01:17:30;;;;;;;;;23.00;19.67;;;;;;;;5039917;28;45305;-70
2022/04/21 01:19:55;;;;;;;;;24.00;22.33;;;;;;;;5039311;28;46253;-70
2022/04/21 01:22:20;;;;;;;;;23.00;16.67;;;;;;;;5039305;28;45264;-70
2022/04/21 01:24:45;;;;;;;;;20.00;18.33;;;;;;;;5039475;28;45285;-70
2022/04/21 01:27:11;;;;;;;;;24.67;19.00;;;;;;;;5039460;28;45369;-70
2022/04/21 01:29:36;;;;;;;;;18.33;16.00;;;;;;;;5039121;28;46145;-70
2022/04/21 01:32:01;;;;;;;;;16.00;16.00;;;;;;;;5038835;28;45349;-70
2022/04/21 01:34:26;;;;;;;;;19.67;18.33;;;;;;;;5039300;28;45381;-70
2022/04/21 01:42:20;;;;;;;;;19.33;17.67;;;;;;;;5039105;28;45401;-71
2022/04/21 01:44:45;;;;;;;;;19.67;17.33;;;;;;;;5038980;28;45199;-71
2022/04/21 01:47:11;;;;;;;;;18.00;16.33;;;;;;;;5039181;28;45317;-70
2022/04/21 01:49:36;;;;;;;;;19.00;17.00;;;;;;;;5038810;28;46542;-70
2022/04/21 01:52:02;;;;;;;;;14.00;14.00;;;;;;;;5038939;28;45469;-70
2022/04/21 01:54:27;;;;;;;;;20.33;17.33;;;;;;;;5039010;28;45459;-70
2022/04/21 01:56:52;;;;;;;;;20.67;17.67;;;;;;;;5039087;28;45289;-70
2022/04/21 01:59:17;;;;;;;;;17.00;17.00;;;;;;;;5038638;28;46321;-70
2022/04/21 02:01:42;;;;;;;;;23.00;22.50;;;;;;;;5038803;28;45255;-70
2022/04/21 02:04:08;;;;;;;;;23.33;16.67;;;;;;;;5038735;28;45431;-70
2022/04/21 02:06:33;;;;;;;;;23.67;19.00;;;;;;;;5038823;28;45258;-70
2022/04/21 02:08:58;;;;;;;;;25.67;18.67;;;;;;;;5038579;28;45344;-69
2022/04/21 02:11:24;;;;;;;;;27.67;21.00;;;;;;;;5038829;28;45495;-69
2022/04/21 02:13:49;;;;;;;;;18.67;16.67;;;;;;;;5038820;28;45411;-68
2022/04/21 02:16:14;;;;;;;;;20.33;16.00;;;;;;;;5039145;28;45335;-68
2022/04/21 02:18:39;;;;;;;;;24.00;17.33;;;;;;;;5038290;28;45299;-68
2022/04/21 02:21:05;;;;;;;;;23.33;19.00;;;;;;;;5038568;28;45325;-69
2022/04/21 02:23:30;;;;;;;;;19.00;16.67;;;;;;;;5038569;28;45427;-70
2022/04/21 02:25:55;;;;;;;;;18.67;16.00;;;;;;;;5038597;28;45346;-70
2022/04/21 02:28:22;;;;;;;;;19.67;16.33;;;;;;;;5038354;28;45520;-71
2022/04/21 02:30:47;;;;;;;;;17.67;16.33;;;;;;;;5038332;28;45390;-71
2022/04/21 02:33:12;;;;;;;;;23.67;19.00;;;;;;;;5038611;28;45264;-70
2022/04/21 02:35:38;;;;;;;;;17.67;16.00;;;;;;;;5038577;28;45375;-70
2022/04/21 02:38:03;;;;;;;;;21.33;20.00;;;;;;;;5038151;28;45507;-70
2022/04/21 02:40:28;;;;;;;;;19.00;18.00;;;;;;;;5038450;28;45378;-70
2022/04/21 02:42:54;;;;;;;;;20.33;17.33;;;;;;;;5037090;28;45354;-71
2022/04/21 02:45:20;;;;;;;;;18.00;18.00;;;;;;;;5025722;28;45410;-70
2022/04/21 02:47:45;;;;;;;;;21.00;18.67;;;;;;;;5028400;28;45389;-70
2022/04/21 02:50:12;;;;;;;;;24.33;21.00;;;;;;;;5018168;28;45361;-70
2022/04/21 02:52:37;;;;;;;;;23.67;16.00;;;;;;;;5018029;28;45727;-70
2022/04/21 02:57:47;;;;;;;;;20.33;19.33;;;;;;;;5017793;28;45306;-70
2022/04/21 03:00:12;;;;;;;;;21.00;19.00;;;;;;;;5018053;28;45309;-70
2022/04/21 03:02:37;;;;;;;;;19.00;18.00;;;;;;;;5018081;28;45294;-70
2022/04/21 03:05:03;;;;;;;;;19.00;17.33;;;;;;;;5018189;28;45350;-70
2022/04/21 03:07:28;;;;;;;;;20.33;15.33;;;;;;;;5017500;28;46378;-70
2022/04/21 03:09:53;;;;;;;;;12.33;12.33;;;;;;;;5017974;28;45290;-70
2022/04/21 03:12:21;;;;;;;;;24.67;19.33;;;;;;;;5018235;28;45968;-70
2022/04/21 03:14:47;;;;;;;;;18.00;15.00;;;;;;;;5017948;28;45481;-70
2022/04/21 03:17:12;;;;;;;;;16.00;14.33;;;;;;;;5017581;28;46336;-70
2022/04/21 03:19:38;;;;;;;;;21.33;16.00;;;;;;;;5017418;28;45458;-71
2022/04/21 03:24:47;;;;;;;;;16.67;15.67;;;;;;;;5017775;28;45325;-69
2022/04/21 03:27:15;;;;;;;;;16.33;16.33;;;;;;;;5017632;28;45310;-70
2022/04/21 03:29:41;;;;;;;;;18.33;17.33;;;;;;;;5017524;28;45362;-70
2022/04/21 03:32:09;;;;;;;;;19.33;16.67;;;;;;;;5017574;28;45319;-70
2022/04/21 03:34:35;;;;;;;;;18.33;16.33;;;;;;;;5017578;28;45563;-69
2022/04/21 03:37:01;;;;;;;;;18.00;17.33;;;;;;;;5017150;28;45387;-70
2022/04/21 03:39:26;;;;;;;;;18.00;16.67;;;;;;;;5017632;28;45289;-69
2022/04/21 03:41:53;;;;;;;;;21.00;14.00;;;;;;;;5017461;28;45457;-71
2022/04/21 03:44:22;;;;;;;;;20.33;17.00;;;;;;;;5017548;28;45361;-68
2022/04/21 03:46:47;;;;;;;;;20.67;18.00;;;;;;;;5017260;28;45321;-69
2022/04/21 03:49:12;;;;;;;;;21.33;18.33;;;;;;;;5017178;28;45219;-69
2022/04/21 03:51:37;;;;;;;;;22.00;15.33;;;;;;;;5017509;28;45376;-69
2022/04/21 03:54:04;;;;;;;;;19.33;17.00;;;;;;;;5017063;28;45623;-69
2022/04/21 03:56:29;;;;;;;;;18.00;15.00;;;;;;;;5016845;28;46498;-68
2022/04/21 03:58:54;;;;;;;;;17.33;15.33;;;;;;;;5017145;28;45312;-69
2022/04/21 04:01:20;;;;;;;;;20.33;16.67;;;;;;;;5017245;28;45374;-69
2022/04/21 04:03:45;;;;;;;;;23.00;19.33;;;;;;;;5017460;28;45418;-70
2022/04/21 04:11:39;;;;;;;;;21.67;17.00;;;;;;;;5017049;28;45296;-70
2022/04/21 04:14:05;;;;;;;;;30.67;24.33;;;;;;;;5017118;28;45524;-75
2022/04/21 04:16:31;;;;;;;;;19.67;14.33;;;;;;;;5016874;28;46275;-68
2022/04/21 04:18:56;;;;;;;;;19.33;17.33;;;;;;;;5016990;28;45324;-71
2022/04/21 04:21:21;;;;;;;;;19.00;17.00;;;;;;;;5017125;28;45331;-70
2022/04/21 04:23:46;;;;;;;;;21.33;19.00;;;;;;;;5016880;28;45347;-70
2022/04/21 04:26:12;;;;;;;;;18.67;16.33;;;;;;;;5016910;28;46672;-71
2022/04/21 04:28:37;;;;;;;;;28.67;22.00;;;;;;;;5032020;28;45351;-71
2022/04/21 04:31:02;;;;;;;;;24.00;21.00;;;;;;;;5016813;28;45386;-71
2022/04/21 04:33:27;;;;;;;;;17.67;16.67;;;;;;;;5017235;28;45327;-71
2022/04/21 04:35:52;;;;;;;;;22.67;19.67;;;;;;;;5016651;28;45397;-71
2022/04/21 04:38:18;;;;;;;;;20.33;18.00;;;;;;;;5031759;28;45560;-71
2022/04/21 04:40:43;;;;;;;;;20.00;18.00;;;;;;;;5016975;28;45287;-71
2022/04/21 04:43:08;;;;;;;;;20.67;16.00;;;;;;;;5016954;28;45446;-71
2022/04/21 04:48:17;;;;;;;;;19.33;17.33;;;;;;;;5016551;28;45443;-71
2022/04/21 04:50:43;;;;;;;;;17.00;16.00;;;;;;;;5016623;28;45378;-71
2022/04/21 04:53:09;;;;;;;;;19.67;19.00;;;;;;;;5016770;28;45261;-69
2022/04/21 04:55:35;;;;;;;;;26.00;21.00;;;;;;;;5016052;28;47355;-70
2022/04/21 04:58:00;;;;;;;;;18.67;16.33;;;;;;;;5016447;28;45385;-70
2022/04/21 05:00:28;;;;;;;;;21.67;19.00;;;;;;;;5016243;28;45358;-70
2022/04/21 05:02:53;;;;;;;;;18.00;17.67;;;;;;;;5016530;28;45361;-71
2022/04/21 05:05:18;;;;;;;;;20.33;18.00;;;;;;;;5016790;28;46321;-71
2022/04/21 05:07:43;;;;;;;;;24.33;23.33;;;;;;;;5019484;28;45392;-71
2022/04/21 05:10:09;;;;;;;;;24.33;19.00;;;;;;;;5019806;28;45322;-71
2022/04/21 05:12:34;;;;;;;;;20.00;16.00;;;;;;;;5020014;28;45570;-71
2022/04/21 05:15:00;;;;;;;;;16.00;16.00;;;;;;;;5019485;28;46278;-70
2022/04/21 05:17:25;;;;;;;;;28.00;20.67;;;;;;;;5019820;28;45334;-70
2022/04/21 05:19:52;;;;;;;;;20.67;19.67;;;;;;;;5019659;28;45439;-70
2022/04/21 05:22:18;;;;;;;;;26.00;21.67;;;;;;;;5019718;28;45475;-70
2022/04/21 05:24:45;;;;;;;;;15.33;15.33;;;;;;;;5019186;28;46203;-70
2022/04/21 05:27:11;;;;;;;;;16.67;14.33;;;;;;;;5019497;28;45381;-70
2022/04/21 05:32:26;;;;;;;;;22.67;20.67;;;;;;;;5019631;28;45335;-70
2022/04/21 05:34:51;;;;;;;;;19.00;19.00;;;;;;;;5019211;28;45779;-70
2022/04/21 05:37:17;;;;;;;;;20.00;17.33;;;;;;;;5019273;28;45338;-70
2022/04/21 05:39:42;;;;;;;;;21.67;19.67;;;;;;;;5019362;28;45296;-70
2022/04/21 05:42:09;;;;;;;;;23.00;20.00;;;;;;;;5019443;28;45386;-70
2022/04/21 05:44:35;;;;;;;;;26.33;22.67;;;;;;;;5019201;28;45292;-70
2022/04/21 05:47:00;;;;;;;;;23.33;20.67;;;;;;;;5018961;28;45560;-71
2022/04/21 05:49:26;;;;;;;;;20.33;19.33;;;;;;;;5019406;28;45246;-68
2022/04/21 05:51:56;;;;;;;;;23.67;22.33;;;;;;;;5019369;28;45196;-68
2022/04/21 05:54:21;;;;;;;;;24.67;22.00;;;;;;;;5018478;28;47349;-67
2022/04/21 05:56:47;;;;;;;;;25.33;21.67;;;;;;;;5018858;28;45335;-67
2022/04/21 05:59:12;;;;;;;;;20.33;18.00;;;;;;;;5018861;28;45279;-67
2022/04/21 06:01:38;;;;;;;;;22.67;18.67;;;;;;;;5018949;28;45524;-67
2022/04/21 06:04:03;;;;;;;;;23.00;21.33;;;;;;;;5019116;28;46519;-68
2022/04/21 06:06:28;;;;;;;;;19.67;18.33;;;;;;;;5018743;28;45409;-72
2022/04/21 06:08:53;;;;;;;;;23.67;19.00;;;;;;;;5018764;28;45250;-72
2022/04/21 06:11:19;;;;;;;;;21.00;19.33;;;;;;;;5018517;28;45446;-69
2022/04/21 06:13:44;;;;;;;;;23.67;20.67;;;;;;;;5018216;28;46545;-68
2022/04/21 06:16:10;;;;;;;;;27.33;22.33;;;;;;;;5018386;28;45286;-68
2022/04/21 06:18:36;;;;;;;;;23.67;21.33;;;;;;;;5018737;28;45232;-69
2022/04/21 06:21:02;;;;;;;;;20.67;16.33;;;;;;;;5018746;28;45526;-69
2022/04/21 06:23:28;;;;;;;;;22.67;20.00;;;;;;;;5018175;28;47033;-69
2022/04/21 06:25:58;;;;;;;;;23.67;22.67;;;;;;;;5018357;28;45377;-69
2022/04/21 06:28:24;;;;;;;;;20.33;20.00;;;;;;;;5018295;28;45389;-70
2022/04/21 06:30:49;;;;;;;;;24.00;20.00;;;;;;;;5018410;28;45410;-70
2022/04/21 06:33:15;;;;;;;;;51.33;41.67;;;;;;;;5018184;28;47643;-68
2022/04/21 06:35:40;;;;;;;;;25.67;24.00;;;;;;;;5018243;28;45239;-68
2022/04/21 06:38:07;;;;;;;;;23.33;23.33;;;;;;;;5017898;28;45410;-68
2022/04/21 06:40:32;;;;;;;;;27.33;23.00;;;;;;;;5018492;28;45521;-69
2022/04/21 06:43:02;;;;;;;;;24.67;22.67;;;;;;;;5017728;28;46649;-69
2022/04/21 06:48:13;;;;;;;;;24.33;18.67;;;;;;;;5018275;28;45338;-69
2022/04/21 06:50:39;;;;;;;;;21.00;20.00;;;;;;;;5018107;28;45414;-69
2022/04/21 06:53:08;;;;;;;;;22.00;17.00;;;;;;;;5017721;28;46283;-69
2022/04/21 06:55:34;;;;;;;;;20.00;17.33;;;;;;;;5033256;28;45325;-70
2022/04/21 06:57:59;;;;;;;;;21.33;21.33;;;;;;;;5017599;28;45227;-69
2022/04/21 07:00:28;;;;;;;;;21.33;17.67;;;;;;;;5018277;28;45429;-70
2022/04/21 07:02:55;;;;;;;;;22.67;17.67;;;;;;;;5018008;28;45610;-69
2022/04/21 07:05:22;;;;;;;;;25.67;18.67;;;;;;;;5017705;28;45225;-69
2022/04/21 07:07:47;;;;;;;;;23.33;18.00;;;;;;;;5018026;28;45344;-70
2022/04/21 07:10:13;;;;;;;;;23.33;21.67;;;;;;;;5017701;28;45388;-69
2022/04/21 07:12:38;;;;;;;;;20.67;18.33;;;;;;;;5017245;28;46447;-69
2022/04/21 07:15:05;;;;;;;;;21.67;19.00;;;;;;;;5018411;28;45562;-70
2022/04/21 07:17:30;;;;;;;;;18.33;18.00;;;;;;;;5035918;28;45548;-70
2022/04/21 07:19:55;;;;;;;;;22.67;20.33;;;;;;;;5037342;28;45439;-70
2022/04/21 07:22:21;;;;;;;;;20.33;18.00;;;;;;;;5037456;28;46316;-69
2022/04/21 07:24:47;;;;;;;;;20.33;19.67;;;;;;;;5036790;28;45298;-71
2022/04/21 07:27:12;;;;;;;;;21.00;18.67;;;;;;;;5037636;28;45317;-70
2022/04/21 07:29:37;;;;;;;;;19.33;15.67;;;;;;;;5036986;28;45268;-70
2022/04/21 07:32:03;;;;;;;;;16.00;15.67;;;;;;;;5037211;28;46559;-70
2022/04/21 07:34:28;;;;;;;;;17.00;17.00;;;;;;;;5036924;28;45592;-70
2022/04/21 07:36:54;;;;;;;;;23.67;17.67;;;;;;;;5037132;28;45358;-70
2022/04/21 07:39:19;;;;;;;;;18.00;18.00;;;;;;;;5037436;28;45354;-71
2022/04/21 07:41:44;;;;;;;;;14.33;14.33;;;;;;;;5037267;28;45347;-70
2022/04/21 07:44:09;;;;;;;;;17.00;16.67;;;;;;;;5037198;28;45357;-71
2022/04/21 07:46:36;;;;;;;;;17.33;16.00;;;;;;;;5036941;28;45451;-71
2022/04/21 07:51:44;;;;;;;;;15.00;15.00;;;;;;;;5036813;28;45310;-71
2022/04/21 07:54:10;;;;;;;;;16.67;14.00;;;;;;;;5036752;28;45429;-71
2022/04/21 07:56:36;;;;;;;;;15.00;12.00;;;;;;;;5036879;28;45307;-71
2022/04/21 07:59:01;;;;;;;;;20.33;18.00;;;;;;;;5037203;28;45355;-70
2022/04/21 08:01:26;;;;;;;;;16.67;14.00;;;;;;;;5036601;28;45306;-71
2022/04/21 08:03:52;;;;;;;;;14.33;13.00;;;;;;;;5036879;28;45390;-71
2022/04/21 08:06:17;;;;;;;;;13.67;11.33;;;;;;;;5037067;28;45342;-70
2022/04/21 08:08:42;;;;;;;;;16.00;11.67;;;;;;;;5036761;28;45344;-71
2022/04/21 08:11:08;;;;;;;;;11.00;10.00;;;;;;;;5036716;28;46488;-71
2022/04/21 08:13:33;;;;;;;;;11.67;11.67;;;;;;;;5036595;28;45373;-71
2022/04/21 08:15:58;;;;;;;;;13.00;13.00;;;;;;;;5037112;28;45314;-71
2022/04/21 08:18:23;;;;;;;;;13.00;11.33;;;;;;;;5037094;28;45374;-72
2022/04/21 08:20:49;;;;;;;;;14.33;10.33;;;;;;;;5036294;28;45503;-71
2022/04/21 08:23:14;;;;;;;;;13.33;12.00;;;;;;;;5036526;28;45451;-71
2022/04/21 08:33:51;;;;;;;;;10.67;10.67;;;;;;;;5036282;28;45335;-70
2022/04/21 08:36:17;;;;;;;;;13.33;10.33;;;;;;;;5036429;28;45442;-70
2022/04/21 08:38:42;;;;;;;;;14.00;10.00;;;;;;;;5035666;28;45536;-70
2022/04/21 08:41:10;;;;;;;;;11.00;10.33;;;;;;;;5038060;28;46162;-70
2022/04/21 08:43:36;;;;;;;;;13.00;8.00;;;;;;;;5021913;28;45419;-70
2022/04/21 08:46:02;;;;;;;;;12.00;10.33;;;;;;;;5039760;28;45388;-69
2022/04/21 08:48:28;;;;;;;;;10.00;10.00;;;;;;;;5040177;28;45319;-70
2022/04/21 08:50:53;;;;;;;;;11.33;9.00;;;;;;;;5039317;28;46131;-70
2022/04/21 08:53:19;;;;;;;;;12.33;12.00;;;;;;;;5039354;28;45390;-70
2022/04/21 08:55:45;;;;;;;;;8.67;8.00;;;;;;;;5039394;28;45330;-70
2022/04/21 08:58:14;;;;;;;;;11.00;10.67;;;;;;;;5039703;28;45579;-70
2022/04/21 09:00:39;;;;;;;;;8.33;8.33;;;;;;;;5039335;28;46674;-70
2022/04/21 09:03:06;;;;;;;;;12.00;10.00;;;;;;;;5038918;28;45436;-70
2022/04/21 09:05:31;;;;;;;;;11.00;11.00;;;;;;;;5039550;28;45362;-69
2022/04/21 09:07:57;;;;;;;;;11.33;10.00;;;;;;;;5039409;28;45411;-70
2022/04/21 09:10:23;;;;;;;;;11.33;11.00;;;;;;;;5038948;28;46620;-70
2022/04/21 09:12:55;;;;;;;;;10.67;10.67;;;;;;;;5038933;28;45284;-70
2022/04/21 09:15:22;;;;;;;;;10.67;10.67;;;;;;;;5039383;28;45417;-69
2022/04/21 09:17:57;;;;;;;;;10.67;10.67;;;;;;;;5039357;28;45396;-70
2022/04/21 09:20:23;;;;;;;;;12.67;10.33;;;;;;;;5038900;28;47646;-70
2022/04/21 09:22:52;;;;;;;;;13.00;12.00;;;;;;;;5038782;28;45414;-70
2022/04/21 09:25:19;;;;;;;;;11.33;9.67;;;;;;;;5039159;28;45396;-70
2022/04/21 09:27:44;;;;;;;;;7.67;7.00;;;;;;;;5039623;28;45338;-70
2022/04/21 09:30:12;;;;;;;;;9.00;7.33;;;;;;;;5038978;28;45964;-70
2022/04/21 09:32:38;;;;;;;;;10.67;9.67;;;;;;;;5039088;28;45318;-70
2022/04/21 09:35:04;;;;;;;;;11.33;11.33;;;;;;;;5038698;28;45385;-70
2022/04/21 09:37:30;;;;;;;;;12.00;9.67;;;;;;;;5039201;28;45438;-70
2022/04/21 09:39:55;;;;;;;;;12.67;11.00;;;;;;;;5038825;28;45283;-71
2022/04/21 09:42:27;;;;;;;;;9.33;8.00;;;;;;;;5038951;28;45442;-71
2022/04/21 09:47:47;;;;;;;;;9.33;8.33;;;;;;;;5039143;28;45245;-70
2022/04/21 09:50:12;;;;;;;;;10.00;10.00;;;;;;;;5038715;28;46246;-71
2022/04/21 09:52:38;;;;;;;;;10.00;10.00;;;;;;;;5038530;28;45437;-70
2022/04/21 09:55:38;;;;;;;;;9.67;9.00;;;;;;;;5038509;28;45477;-70
2022/04/21 09:58:08;;;;;;;;;9.33;7.33;;;;;;;;4977050;28;45416;-70
2022/04/21 10:00:34;;;;;;;;;8.00;8.00;;;;;;;;4977074;28;46088;-70
2022/04/21 10:03:00;;;;;;;;;9.00;8.33;;;;;;;;4976985;28;45331;-70
2022/04/21 10:05:25;;;;;;;;;8.67;7.67;;;;;;;;4977066;28;45483;-70
2022/04/21 10:07:52;;;;;;;;;8.33;8.33;;;;;;;;4977392;28;45279;-70
2022/04/21 10:10:17;;;;;;;;;8.00;8.00;;;;;;;;4976724;28;45709;-69
2022/04/21 10:12:42;;;;;;;;;7.67;7.67;;;;;;;;4976891;28;45390;-70
2022/04/21 10:15:08;;;;;;;;;10.00;9.33;;;;;;;;4977141;28;45375;-70
2022/04/21 10:17:34;;;;;;;;;8.67;8.67;;;;;;;;4977273;28;45359;-70
2022/04/21 10:20:00;;;;;;;;;7.00;7.00;;;;;;;;4976884;28;45658;-70
2022/04/21 10:22:26;;;;;;;;;6.67;6.67;;;;;;;;4976950;28;45498;-71
2022/04/21 10:24:54;;;;;;;;;9.33;8.00;;;;;;;;4976744;28;45467;-70
2022/04/21 10:27:34;;;;;;;;;7.67;5.67;;;;;;;;4976919;28;45371;-71
2022/04/21 10:29:59;;;;;;;;;9.33;9.33;;;;;;;;4976557;28;45356;-70
2022/04/21 10:32:44;;;;;;;;;9.33;8.00;;;;;;;;5016833;28;45331;-70
2022/04/21 10:35:20;;;;;;;;;7.00;7.00;;;;;;;;5038332;28;45324;-71
2022/04/21 10:37:46;;;;;;;;;6.33;6.33;;;;;;;;5038569;28;45398;-70
2022/04/21 10:40:14;;;;;;;;;10.00;10.00;;;;;;;;5037897;28;45433;-70
2022/04/21 10:42:51;;;;;;;;;6.33;6.00;;;;;;;;5038201;28;45552;-70
2022/04/21 10:45:21;;;;;;;;;6.00;6.00;;;;;;;;5038151;28;45219;-70
2022/04/21 10:48:02;;;;;;;;;6.67;5.00;;;;;;;;5038265;28;45397;-70
2022/04/21 10:50:30;;;;;;;;;6.33;6.33;;;;;;;;5037761;28;46045;-70
2022/04/21 10:58:50;;;;;;;;;6.00;6.00;;;;;;;;5038270;28;45306;-70
2022/04/21 11:01:27;;;;;;;;;6.67;6.67;;;;;;;;5034478;28;46019;-70
2022/04/21 11:04:09;;;;;;;;;5.67;5.67;;;;;;;;5036974;28;45406;-70
2022/04/21 11:06:39;;;;;;;;;6.00;5.00;;;;;;;;5037633;28;45353;-71
2022/04/21 11:09:04;;;;;;;;;8.67;7.33;;;;;;;;5037505;28;45413;-70
2022/04/21 11:11:46;;;;;;;;;7.67;5.67;;;;;;;;5037532;28;45453;-70
2022/04/21 11:14:11;;;;;;;;;9.00;6.00;;;;;;;;5037828;28;45239;-70
2022/04/21 11:16:47;;;;;;;;;7.33;7.33;;;;;;;;5037765;28;45670;-70
2022/04/21 11:19:33;;;;;;;;;6.33;5.33;;;;;;;;5037866;28;45858;-70
2022/04/21 11:21:59;;;;;;;;;4.67;4.67;;;;;;;;5036947;28;46332;-70
2022/04/21 11:24:25;;;;;;;;;6.33;6.33;;;;;;;;5037495;28;45311;-70
2022/04/21 11:26:58;;;;;;;;;7.00;4.00;;;;;;;;5037435;28;45412;-69
2022/04/21 11:29:23;;;;;;;;;8.00;5.00;;;;;;;;5037345;28;45263;-69
2022/04/21 11:31:53;;;;;;;;;6.67;5.00;;;;;;;;5037223;28;45303;-70
2022/04/21 11:34:22;;;;;;;;;6.00;4.33;;;;;;;;5037228;28;45377;-69
2022/04/21 11:36:48;;;;;;;;;6.00;6.00;;;;;;;;5037462;28;45469;-70
2022/04/21 11:39:14;;;;;;;;;4.00;4.00;;;;;;;;5037534;28;45524;-70
2022/04/21 11:41:52;;;;;;;;;4.33;4.33;;;;;;;;5037225;28;46164;-70
2022/04/21 11:44:25;;;;;;;;;5.33;5.33;;;;;;;;5037199;28;45338;-70
2022/04/21 11:46:50;;;;;;;;;4.00;4.00;;;;;;;;5037111;28;45274;-69
2022/04/21 11:49:15;;;;;;;;;8.67;5.67;;;;;;;;5036899;28;45381;-69
2022/04/21 11:51:41;;;;;;;;;7.67;7.00;;;;;;;;5036910;28;46230;-70
2022/04/21 11:54:07;;;;;;;;;6.33;6.33;;;;;;;;5036748;28;45298;-69
2022/04/21 11:56:33;;;;;;;;;5.00;5.00;;;;;;;;5036713;28;45453;-69
2022/04/21 11:59:03;;;;;;;;;10.00;9.00;;;;;;;;5036979;28;45636;-70
2022/04/21 12:06:57;;;;;;;;;4.33;4.33;;;;;;;;5036777;28;45236;-69
2022/04/21 12:09:26;;;;;;;;;8.67;5.67;;;;;;;;5037083;28;45325;-70
2022/04/21 12:11:58;;;;;;;;;8.00;7.00;;;;;;;;5036244;28;45700;-69
2022/04/21 12:14:24;;;;;;;;;6.00;5.00;;;;;;;;5037509;28;45483;-70
2022/04/21 12:16:52;;;;;;;;;8.00;6.00;;;;;;;;5040240;28;45286;-69
2022/04/21 12:19:18;;;;;;;;;4.67;4.67;;;;;;;;5040565;28;45379;-69
2022/04/21 12:21:44;;;;;;;;;5.00;4.67;;;;;;;;5039724;28;45349;-69
2022/04/21 12:24:14;;;;;;;;;8.33;5.33;;;;;;;;5040436;28;45421;-70
2022/04/21 12:26:52;;;;;;;;;7.00;6.00;;;;;;;;5039677;28;45786;-71
2022/04/21 12:29:19;;;;;;;;;5.67;4.33;;;;;;;;5040427;28;45464;-69
2022/04/21 12:31:52;;;;;;;;;9.00;6.00;;;;;;;;5039723;28;46555;-70
2022/04/21 12:34:27;;;;;;;;;6.67;6.33;;;;;;;;5039738;28;45349;-70
2022/04/21 12:36:53;;;;;;;;;9.33;7.00;;;;;;;;5039932;28;45871;-70
2022/04/21 12:39:19;;;;;;;;;6.00;6.00;;;;;;;;5040432;28;45408;-70
2022/04/21 12:41:45;;;;;;;;;5.00;5.00;;;;;;;;5039567;28;45432;-69
2022/04/21 12:44:11;;;;;;;;;5.33;5.33;;;;;;;;5039781;28;45380;-69
2022/04/21 12:46:36;;;;;;;;;4.67;4.67;;;;;;;;5040089;28;45500;-70
2022/04/21 12:49:01;;;;;;;;;8.67;7.33;;;;;;;;5039766;28;45232;-70
2022/04/21 12:51:26;;;;;;;;;8.00;6.33;;;;;;;;5039850;28;47302;-70
2022/04/21 12:53:57;;;;;;;;;6.67;6.00;;;;;;;;5039819;28;45188;-69
2022/04/21 12:56:32;;;;;;;;;6.00;6.00;;;;;;;;5039402;28;45262;-70
2022/04/21 12:58:57;;;;;;;;;5.00;5.00;;;;;;;;5039704;28;45294;-69
2022/04/21 13:01:22;;;;;;;;;12.00;8.67;;;;;;;;5039218;28;46164;-69
2022/04/21 13:03:48;;;;;;;;;8.67;8.67;;;;;;;;5039521;28;45472;-69
2022/04/21 13:06:13;;;;;;;;;7.00;7.00;;;;;;;;5039870;28;45389;-69
2022/04/21 13:08:38;;;;;;;;;9.00;7.00;;;;;;;;5039619;28;45387;-70
2022/04/21 13:11:03;;;;;;;;;7.67;6.33;;;;;;;;5039216;28;45670;-70
2022/04/21 13:13:29;;;;;;;;;9.00;7.67;;;;;;;;5039500;28;45377;-70
2022/04/21 13:15:55;;;;;;;;;7.33;7.33;;;;;;;;5039552;28;45379;-70
2022/04/21 13:18:20;;;;;;;;;8.33;7.00;;;;;;;;5040022;28;45363;-70
2022/04/21 13:23:40;;;;;;;;;10.67;7.33;;;;;;;;4938813;28;45382;-70
2022/04/21 13:26:05;;;;;;;;;5.67;5.67;;;;;;;;4938000;28;45342;-70
2022/04/21 13:28:30;;;;;;;;;12.00;9.33;;;;;;;;4939099;28;45451;-70
2022/04/21 13:33:40;;;;;;;;;6.00;6.00;;;;;;;;4938587;28;45340;-70
2022/04/21 13:36:06;;;;;;;;;14.33;11.33;;;;;;;;4955210;28;45428;-69
2022/04/21 13:38:32;;;;;;;;;9.33;8.00;;;;;;;;4938882;28;45209;-70
2022/04/21 13:40:57;;;;;;;;;12.67;12.67;;;;;;;;4938630;28;47417;-70
2022/04/21 13:43:23;;;;;;;;;9.33;8.00;;;;;;;;4938448;28;45316;-69
2022/04/21 13:45:48;;;;;;;;;12.67;11.33;;;;;;;;4938779;28;45521;-70
2022/04/21 13:48:14;;;;;;;;;8.00;8.00;;;;;;;;4939057;28;45290;-69
2022/04/21 13:50:39;;;;;;;;;14.00;11.67;;;;;;;;4938477;28;46359;-70
2022/04/21 13:53:06;;;;;;;;;11.33;10.00;;;;;;;;4938584;28;45479;-69
2022/04/21 13:55:32;;;;;;;;;11.67;9.00;;;;;;;;4938408;28;45528;-69
2022/04/21 13:57:58;;;;;;;;;8.67;7.00;;;;;;;;4938194;28;45477;-70
2022/04/21 14:00:25;;;;;;;;;10.00;7.00;;;;;;;;5002205;28;46103;-69
2022/04/21 14:02:51;;;;;;;;;8.00;6.33;;;;;;;;5038670;28;45353;-70
2022/04/21 14:05:16;;;;;;;;;9.33;8.00;;;;;;;;5038824;28;45258;-69
2022/04/21 14:07:41;;;;;;;;;11.67;8.33;;;;;;;;5039081;28;45231;-69
2022/04/21 14:10:07;;;;;;;;;10.67;8.33;;;;;;;;5038670;28;47367;-69
2022/04/21 14:12:32;;;;;;;;;8.00;7.00;;;;;;;;5038644;28;45247;-68
2022/04/21 14:14:57;;;;;;;;;6.67;6.67;;;;;;;;5038680;28;45434;-68
2022/04/21 14:17:22;;;;;;;;;10.00;8.00;;;;;;;;5038973;28;45200;-68
2022/04/21 14:19:48;;;;;;;;;8.67;8.33;;;;;;;;5038298;28;45375;-68
2022/04/21 14:22:13;;;;;;;;;9.00;7.00;;;;;;;;5038456;28;45302;-68
2022/04/21 14:24:38;;;;;;;;;9.67;9.67;;;;;;;;5038531;28;45264;-68
2022/04/21 14:27:05;;;;;;;;;16.67;8.67;;;;;;;;5038492;28;45283;-68
2022/04/21 14:29:30;;;;;;;;;5.00;3.67;;;;;;;;5038427;28;46254;-69
2022/04/21 14:31:55;;;;;;;;;7.00;7.00;;;;;;;;5038243;28;45288;-68
2022/04/21 14:34:21;;;;;;;;;11.00;9.33;;;;;;;;5038026;28;45281;-68
2022/04/21 14:36:46;;;;;;;;;9.00;8.00;;;;;;;;5038290;28;45340;-68
2022/04/21 14:44:39;;;;;;;;;8.00;8.00;;;;;;;;5038052;28;45418;-69
2022/04/21 14:47:07;;;;;;;;;8.00;8.00;;;;;;;;5038123;28;45383;-69
2022/04/21 14:49:32;;;;;;;;;8.33;5.67;;;;;;;;5038148;28;46206;-69
2022/04/21 14:51:57;;;;;;;;;13.00;10.67;;;;;;;;5038048;28;45417;-69
2022/04/21 14:54:22;;;;;;;;;10.00;9.67;;;;;;;;5038228;28;45298;-69
2022/04/21 14:56:47;;;;;;;;;12.33;10.67;;;;;;;;5037891;28;45477;-69
2022/04/21 14:59:13;;;;;;;;;12.00;10.00;;;;;;;;5038193;28;46661;-68
2022/04/21 15:01:38;;;;;;;;;10.00;10.00;;;;;;;;5037663;28;45346;-69
2022/04/21 15:04:04;;;;;;;;;13.00;12.33;;;;;;;;5020093;28;45626;-69
2022/04/21 15:06:29;;;;;;;;;13.33;11.67;;;;;;;;5037377;28;45488;-68
2022/04/21 15:08:54;;;;;;;;;10.33;9.00;;;;;;;;5036405;28;46383;-68
2022/04/21 15:11:20;;;;;;;;;13.33;12.67;;;;;;;;5037069;28;45439;-70
2022/04/21 15:13:45;;;;;;;;;9.00;9.00;;;;;;;;5037377;28;45596;-69
2022/04/21 15:16:10;;;;;;;;;12.67;10.33;;;;;;;;5037482;28;45362;-68
2022/04/21 15:18:36;;;;;;;;;13.00;10.00;;;;;;;;5036856;28;46691;-68
2022/04/21 15:21:02;;;;;;;;;11.67;10.67;;;;;;;;5037131;28;45393;-67
2022/04/21 15:23:27;;;;;;;;;13.33;9.67;;;;;;;;5037164;28;45411;-67